sensor_id;sensor_type;location;lat;lon;timestamp;P1;durP1;ratioP1;P2;durP2;ratioP2
51146;SDS011;37207;53.060;18.726;2023-02-19T00:02:13;5.70;;;4.30;;
51146;SDS011;37207;53.060;18.726;2023-02-19T00:04:39;3.30;;;2.10;;
51146;SDS011;37207;53.060;18.726;2023-02-19T00:07:05;6.50;;;2.80;;
51146;SDS011;37207;53.060;18.726;2023-02-19T00:09:30;4.70;;;2.70;;
51146;SDS011;37207;53.060;18.726;2023-02-19T00:11:56;5.00;;;2.90;;
51146;SDS011;37207;53.060;18.726;2023-02-19T00:14:22;7.20;;;3.20;;
51146;SDS011;37207;53.060;18.726;2023-02-19T00:16:48;7.30;;;3.00;;
51146;SDS011;37207;53.060;18.726;2023-02-19T00:19:16;6.00;;;4.50;;
51146;SDS011;37207;53.060;18.726;2023-02-19T00:21:43;5.80;;;2.50;;
51146;SDS011;37207;53.060;18.726;2023-02-19T00:24:09;5.40;;;3.10;;
51146;SDS011;37207;53.060;18.726;2023-02-19T00:26:38;7.40;;;2.70;;
51146;SDS011;37207;53.060;18.726;2023-02-19T00:29:05;6.10;;;2.80;;
51146;SDS011;37207;53.060;18.726;2023-02-19T00:31:32;5.90;;;2.40;;
51146;SDS011;37207;53.060;18.726;2023-02-19T00:34:00;7.70;;;3.20;;
51146;SDS011;37207;53.060;18.726;2023-02-19T00:36:29;12.00;;;2.90;;
51146;SDS011;37207;53.060;18.726;2023-02-19T00:38:56;3.60;;;2.00;;
51146;SDS011;37207;53.060;18.726;2023-02-19T00:41:22;6.80;;;2.80;;
51146;SDS011;37207;53.060;18.726;2023-02-19T00:43:50;7.80;;;3.00;;
51146;SDS011;37207;53.060;18.726;2023-02-19T00:46:20;8.70;;;3.00;;
51146;SDS011;37207;53.060;18.726;2023-02-19T00:48:49;11.40;;;2.90;;
51146;SDS011;37207;53.060;18.726;2023-02-19T00:51:15;8.60;;;2.80;;
51146;SDS011;37207;53.060;18.726;2023-02-19T00:53:41;7.50;;;4.90;;
51146;SDS011;37207;53.060;18.726;2023-02-19T00:56:07;6.40;;;3.50;;
51146;SDS011;37207;53.060;18.726;2023-02-19T00:58:33;11.40;;;2.90;;
51146;SDS011;37207;53.060;18.726;2023-02-19T01:01:00;4.30;;;2.30;;
51146;SDS011;37207;53.060;18.726;2023-02-19T01:03:26;9.60;;;5.30;;
51146;SDS011;37207;53.060;18.726;2023-02-19T01:05:52;9.10;;;5.40;;
51146;SDS011;37207;53.060;18.726;2023-02-19T01:08:19;8.80;;;3.10;;
51146;SDS011;37207;53.060;18.726;2023-02-19T01:10:46;7.20;;;2.40;;
51146;SDS011;37207;53.060;18.726;2023-02-19T01:13:12;9.60;;;2.80;;
51146;SDS011;37207;53.060;18.726;2023-02-19T01:15:39;4.60;;;2.90;;
51146;SDS011;37207;53.060;18.726;2023-02-19T01:18:05;6.70;;;1.90;;
51146;SDS011;37207;53.060;18.726;2023-02-19T01:20:31;5.00;;;1.90;;
51146;SDS011;37207;53.060;18.726;2023-02-19T01:22:57;6.50;;;3.00;;
51146;SDS011;37207;53.060;18.726;2023-02-19T01:25:22;6.40;;;4.10;;
51146;SDS011;37207;53.060;18.726;2023-02-19T01:27:48;9.90;;;2.30;;
51146;SDS011;37207;53.060;18.726;2023-02-19T01:30:16;6.20;;;3.70;;
51146;SDS011;37207;53.060;18.726;2023-02-19T01:32:43;6.80;;;2.70;;
51146;SDS011;37207;53.060;18.726;2023-02-19T01:35:09;3.40;;;1.50;;
51146;SDS011;37207;53.060;18.726;2023-02-19T01:37:34;10.30;;;2.00;;
51146;SDS011;37207;53.060;18.726;2023-02-19T01:40:00;3.90;;;1.90;;
51146;SDS011;37207;53.060;18.726;2023-02-19T01:42:26;5.70;;;2.30;;
51146;SDS011;37207;53.060;18.726;2023-02-19T01:45:17;6.90;;;1.90;;
51146;SDS011;37207;53.060;18.726;2023-02-19T01:47:54;5.20;;;1.90;;
51146;SDS011;37207;53.060;18.726;2023-02-19T01:50:26;17.20;;;3.80;;
51146;SDS011;37207;53.060;18.726;2023-02-19T01:52:55;7.40;;;3.00;;
51146;SDS011;37207;53.060;18.726;2023-02-19T01:55:21;8.10;;;2.90;;
51146;SDS011;37207;53.060;18.726;2023-02-19T01:57:48;5.20;;;2.20;;
51146;SDS011;37207;53.060;18.726;2023-02-19T02:00:18;9.10;;;3.60;;
51146;SDS011;37207;53.060;18.726;2023-02-19T02:02:47;6.30;;;2.00;;
51146;SDS011;37207;53.060;18.726;2023-02-19T02:08:10;3.30;;;1.70;;
51146;SDS011;37207;53.060;18.726;2023-02-19T02:10:56;6.90;;;2.40;;
51146;SDS011;37207;53.060;18.726;2023-02-19T02:13:22;7.10;;;3.40;;
51146;SDS011;37207;53.060;18.726;2023-02-19T02:15:50;6.10;;;3.00;;
51146;SDS011;37207;53.060;18.726;2023-02-19T02:18:35;8.90;;;1.90;;
51146;SDS011;37207;53.060;18.726;2023-02-19T02:30:37;9.70;;;1.20;;
51146;SDS011;37207;53.060;18.726;2023-02-19T02:33:19;3.40;;;1.90;;
51146;SDS011;37207;53.060;18.726;2023-02-19T02:35:54;7.20;;;2.20;;
51146;SDS011;37207;53.060;18.726;2023-02-19T02:38:27;12.10;;;3.10;;
51146;SDS011;37207;53.060;18.726;2023-02-19T02:40:56;9.90;;;4.40;;
51146;SDS011;37207;53.060;18.726;2023-02-19T02:43:23;8.40;;;2.40;;
51146;SDS011;37207;53.060;18.726;2023-02-19T02:45:50;8.00;;;1.80;;
51146;SDS011;37207;53.060;18.726;2023-02-19T02:53:40;5.50;;;2.10;;
51146;SDS011;37207;53.060;18.726;2023-02-19T02:56:31;3.50;;;2.10;;
51146;SDS011;37207;53.060;18.726;2023-02-19T02:59:07;5.30;;;2.10;;
51146;SDS011;37207;53.060;18.726;2023-02-19T03:07:49;5.70;;;2.30;;
51146;SDS011;37207;53.060;18.726;2023-02-19T03:10:42;4.70;;;2.00;;
51146;SDS011;37207;53.060;18.726;2023-02-19T03:13:47;7.40;;;1.80;;
51146;SDS011;37207;53.060;18.726;2023-02-19T03:16:28;9.40;;;2.30;;
51146;SDS011;37207;53.060;18.726;2023-02-19T03:19:18;6.00;;;2.60;;
51146;SDS011;37207;53.060;18.726;2023-02-19T03:21:59;6.90;;;2.40;;
51146;SDS011;37207;53.060;18.726;2023-02-19T03:25:04;4.80;;;2.30;;
51146;SDS011;37207;53.060;18.726;2023-02-19T03:27:57;3.10;;;1.50;;
51146;SDS011;37207;53.060;18.726;2023-02-19T03:30:28;7.00;;;4.20;;
51146;SDS011;37207;53.060;18.726;2023-02-19T03:35:57;9.00;;;2.90;;
51146;SDS011;37207;53.060;18.726;2023-02-19T03:38:35;4.90;;;2.70;;
51146;SDS011;37207;53.060;18.726;2023-02-19T03:43:59;9.60;;;3.20;;
51146;SDS011;37207;53.060;18.726;2023-02-19T03:49:40;10.70;;;8.30;;
51146;SDS011;37207;53.060;18.726;2023-02-19T03:52:13;14.10;;;7.00;;
51146;SDS011;37207;53.060;18.726;2023-02-19T03:54:51;10.00;;;7.80;;
51146;SDS011;37207;53.060;18.726;2023-02-19T03:57:27;19.10;;;8.40;;
51146;SDS011;37207;53.060;18.726;2023-02-19T04:00:17;11.50;;;9.10;;
51146;SDS011;37207;53.060;18.726;2023-02-19T04:02:57;12.70;;;7.50;;
51146;SDS011;37207;53.060;18.726;2023-02-19T04:05:34;13.40;;;11.20;;
51146;SDS011;37207;53.060;18.726;2023-02-19T04:08:09;12.20;;;8.00;;
51146;SDS011;37207;53.060;18.726;2023-02-19T04:10:43;13.40;;;11.20;;
51146;SDS011;37207;53.060;18.726;2023-02-19T04:13:14;25.30;;;11.30;;
51146;SDS011;37207;53.060;18.726;2023-02-19T04:15:47;17.30;;;9.30;;
51146;SDS011;37207;53.060;18.726;2023-02-19T04:18:19;11.40;;;7.90;;
51146;SDS011;37207;53.060;18.726;2023-02-19T04:20:49;13.50;;;8.50;;
51146;SDS011;37207;53.060;18.726;2023-02-19T04:23:18;16.10;;;13.90;;
51146;SDS011;37207;53.060;18.726;2023-02-19T04:25:48;18.40;;;8.10;;
51146;SDS011;37207;53.060;18.726;2023-02-19T04:28:18;12.70;;;7.50;;
51146;SDS011;37207;53.060;18.726;2023-02-19T04:30:43;9.30;;;6.80;;
51146;SDS011;37207;53.060;18.726;2023-02-19T04:33:10;13.10;;;4.90;;
51146;SDS011;37207;53.060;18.726;2023-02-19T04:35:35;6.10;;;4.50;;
51146;SDS011;37207;53.060;18.726;2023-02-19T04:38:01;14.10;;;5.80;;
51146;SDS011;37207;53.060;18.726;2023-02-19T04:40:27;18.20;;;6.60;;
51146;SDS011;37207;53.060;18.726;2023-02-19T04:42:53;11.20;;;6.30;;
51146;SDS011;37207;53.060;18.726;2023-02-19T04:45:19;18.40;;;9.40;;
51146;SDS011;37207;53.060;18.726;2023-02-19T04:47:45;18.40;;;14.10;;
51146;SDS011;37207;53.060;18.726;2023-02-19T04:50:11;19.50;;;9.60;;
51146;SDS011;37207;53.060;18.726;2023-02-19T04:52:37;16.40;;;8.50;;
51146;SDS011;37207;53.060;18.726;2023-02-19T04:55:04;10.60;;;7.30;;
51146;SDS011;37207;53.060;18.726;2023-02-19T04:57:30;17.80;;;7.40;;
51146;SDS011;37207;53.060;18.726;2023-02-19T04:59:56;9.70;;;4.80;;
51146;SDS011;37207;53.060;18.726;2023-02-19T05:02:22;14.80;;;7.90;;
51146;SDS011;37207;53.060;18.726;2023-02-19T05:04:48;11.30;;;3.80;;
51146;SDS011;37207;53.060;18.726;2023-02-19T05:07:14;6.20;;;3.00;;
51146;SDS011;37207;53.060;18.726;2023-02-19T05:09:40;6.00;;;3.00;;
51146;SDS011;37207;53.060;18.726;2023-02-19T05:12:06;11.30;;;3.00;;
51146;SDS011;37207;53.060;18.726;2023-02-19T05:14:31;11.20;;;3.30;;
51146;SDS011;37207;53.060;18.726;2023-02-19T05:16:57;7.20;;;3.10;;
51146;SDS011;37207;53.060;18.726;2023-02-19T05:19:23;9.20;;;3.20;;
51146;SDS011;37207;53.060;18.726;2023-02-19T05:21:49;5.70;;;2.30;;
51146;SDS011;37207;53.060;18.726;2023-02-19T05:24:15;13.80;;;2.80;;
51146;SDS011;37207;53.060;18.726;2023-02-19T05:26:41;9.40;;;3.20;;
51146;SDS011;37207;53.060;18.726;2023-02-19T05:29:06;11.50;;;3.50;;
51146;SDS011;37207;53.060;18.726;2023-02-19T05:31:32;7.20;;;2.50;;
51146;SDS011;37207;53.060;18.726;2023-02-19T05:33:58;6.90;;;2.80;;
51146;SDS011;37207;53.060;18.726;2023-02-19T05:36:24;10.10;;;2.80;;
51146;SDS011;37207;53.060;18.726;2023-02-19T05:38:51;6.20;;;2.50;;
51146;SDS011;37207;53.060;18.726;2023-02-19T05:41:24;13.30;;;3.20;;
51146;SDS011;37207;53.060;18.726;2023-02-19T05:43:56;14.80;;;5.70;;
51146;SDS011;37207;53.060;18.726;2023-02-19T05:46:23;11.40;;;2.90;;
51146;SDS011;37207;53.060;18.726;2023-02-19T05:48:54;6.70;;;2.70;;
51146;SDS011;37207;53.060;18.726;2023-02-19T05:51:23;10.10;;;2.40;;
51146;SDS011;37207;53.060;18.726;2023-02-19T05:53:50;9.10;;;3.30;;
51146;SDS011;37207;53.060;18.726;2023-02-19T05:59:21;10.40;;;5.50;;
51146;SDS011;37207;53.060;18.726;2023-02-19T06:01:50;6.60;;;3.10;;
51146;SDS011;37207;53.060;18.726;2023-02-19T06:04:17;4.40;;;2.70;;
51146;SDS011;37207;53.060;18.726;2023-02-19T06:06:46;11.00;;;2.80;;
51146;SDS011;37207;53.060;18.726;2023-02-19T06:09:12;11.80;;;5.60;;
51146;SDS011;37207;53.060;18.726;2023-02-19T06:11:38;10.80;;;3.70;;
51146;SDS011;37207;53.060;18.726;2023-02-19T06:14:05;9.50;;;4.40;;
51146;SDS011;37207;53.060;18.726;2023-02-19T06:16:31;9.60;;;3.20;;
51146;SDS011;37207;53.060;18.726;2023-02-19T06:19:01;12.20;;;6.00;;
51146;SDS011;37207;53.060;18.726;2023-02-19T06:21:28;17.80;;;8.20;;
51146;SDS011;37207;53.060;18.726;2023-02-19T06:23:54;7.40;;;4.00;;
51146;SDS011;37207;53.060;18.726;2023-02-19T06:26:21;4.90;;;2.70;;
51146;SDS011;37207;53.060;18.726;2023-02-19T06:28:48;10.00;;;3.80;;
51146;SDS011;37207;53.060;18.726;2023-02-19T06:31:18;3.60;;;2.60;;
51146;SDS011;37207;53.060;18.726;2023-02-19T06:33:45;8.70;;;3.70;;
51146;SDS011;37207;53.060;18.726;2023-02-19T06:36:12;11.20;;;2.90;;
51146;SDS011;37207;53.060;18.726;2023-02-19T06:38:44;14.40;;;3.50;;
51146;SDS011;37207;53.060;18.726;2023-02-19T06:41:10;10.10;;;3.80;;
51146;SDS011;37207;53.060;18.726;2023-02-19T06:43:37;8.70;;;2.70;;
51146;SDS011;37207;53.060;18.726;2023-02-19T06:46:04;8.00;;;3.70;;
51146;SDS011;37207;53.060;18.726;2023-02-19T06:48:32;8.60;;;3.40;;
51146;SDS011;37207;53.060;18.726;2023-02-19T06:50:58;11.00;;;5.20;;
51146;SDS011;37207;53.060;18.726;2023-02-19T06:53:24;11.20;;;5.70;;
51146;SDS011;37207;53.060;18.726;2023-02-19T06:58:29;18.90;;;4.70;;
51146;SDS011;37207;53.060;18.726;2023-02-19T07:01:01;5.30;;;2.20;;
51146;SDS011;37207;53.060;18.726;2023-02-19T07:03:27;7.20;;;3.30;;
51146;SDS011;37207;53.060;18.726;2023-02-19T07:05:53;11.50;;;5.70;;
51146;SDS011;37207;53.060;18.726;2023-02-19T07:08:19;7.60;;;5.10;;
51146;SDS011;37207;53.060;18.726;2023-02-19T07:10:52;11.20;;;6.80;;
51146;SDS011;37207;53.060;18.726;2023-02-19T07:13:24;17.10;;;11.00;;
51146;SDS011;37207;53.060;18.726;2023-02-19T07:15:59;6.40;;;3.70;;
51146;SDS011;37207;53.060;18.726;2023-02-19T07:18:34;16.10;;;4.00;;
51146;SDS011;37207;53.060;18.726;2023-02-19T07:21:05;16.70;;;8.30;;
51146;SDS011;37207;53.060;18.726;2023-02-19T07:23:33;21.40;;;10.60;;
51146;SDS011;37207;53.060;18.726;2023-02-19T07:25:59;14.00;;;8.30;;
51146;SDS011;37207;53.060;18.726;2023-02-19T07:28:25;18.50;;;11.10;;
51146;SDS011;37207;53.060;18.726;2023-02-19T07:30:51;14.10;;;8.60;;
51146;SDS011;37207;53.060;18.726;2023-02-19T07:33:17;12.20;;;7.50;;
51146;SDS011;37207;53.060;18.726;2023-02-19T07:35:44;16.30;;;10.90;;
51146;SDS011;37207;53.060;18.726;2023-02-19T07:38:19;15.90;;;9.10;;
51146;SDS011;37207;53.060;18.726;2023-02-19T07:40:50;12.30;;;4.20;;
51146;SDS011;37207;53.060;18.726;2023-02-19T07:43:17;15.70;;;8.00;;
51146;SDS011;37207;53.060;18.726;2023-02-19T07:45:45;6.90;;;3.60;;
51146;SDS011;37207;53.060;18.726;2023-02-19T07:48:14;14.50;;;6.10;;
51146;SDS011;37207;53.060;18.726;2023-02-19T07:50:40;11.00;;;5.90;;
51146;SDS011;37207;53.060;18.726;2023-02-19T07:53:06;10.80;;;5.90;;
51146;SDS011;37207;53.060;18.726;2023-02-19T07:55:32;8.10;;;7.00;;
51146;SDS011;37207;53.060;18.726;2023-02-19T07:57:59;18.60;;;11.20;;
51146;SDS011;37207;53.060;18.726;2023-02-19T08:00:26;11.00;;;7.80;;
51146;SDS011;37207;53.060;18.726;2023-02-19T08:02:55;11.30;;;6.00;;
51146;SDS011;37207;53.060;18.726;2023-02-19T08:05:38;13.80;;;8.10;;
51146;SDS011;37207;53.060;18.726;2023-02-19T08:08:25;16.60;;;9.60;;
51146;SDS011;37207;53.060;18.726;2023-02-19T08:10:50;12.30;;;7.20;;
51146;SDS011;37207;53.060;18.726;2023-02-19T08:13:35;16.40;;;7.00;;
51146;SDS011;37207;53.060;18.726;2023-02-19T08:18:27;15.20;;;8.30;;
51146;SDS011;37207;53.060;18.726;2023-02-19T08:20:55;7.60;;;5.90;;
51146;SDS011;37207;53.060;18.726;2023-02-19T08:23:23;13.30;;;7.70;;
51146;SDS011;37207;53.060;18.726;2023-02-19T08:25:50;9.90;;;6.60;;
51146;SDS011;37207;53.060;18.726;2023-02-19T08:28:17;11.60;;;7.60;;
51146;SDS011;37207;53.060;18.726;2023-02-19T08:30:45;15.70;;;7.30;;
51146;SDS011;37207;53.060;18.726;2023-02-19T08:33:23;10.30;;;6.80;;
51146;SDS011;37207;53.060;18.726;2023-02-19T08:35:49;10.10;;;6.40;;
51146;SDS011;37207;53.060;18.726;2023-02-19T08:38:14;23.50;;;10.90;;
51146;SDS011;37207;53.060;18.726;2023-02-19T08:40:43;40.40;;;20.80;;
51146;SDS011;37207;53.060;18.726;2023-02-19T08:43:10;15.20;;;8.00;;
51146;SDS011;37207;53.060;18.726;2023-02-19T08:45:40;16.10;;;7.50;;
51146;SDS011;37207;53.060;18.726;2023-02-19T08:48:12;11.20;;;7.00;;
51146;SDS011;37207;53.060;18.726;2023-02-19T08:50:38;11.70;;;7.30;;
51146;SDS011;37207;53.060;18.726;2023-02-19T08:53:05;19.30;;;9.00;;
51146;SDS011;37207;53.060;18.726;2023-02-19T08:55:31;15.90;;;7.20;;
51146;SDS011;37207;53.060;18.726;2023-02-19T08:57:58;12.30;;;6.50;;
51146;SDS011;37207;53.060;18.726;2023-02-19T09:00:24;18.70;;;9.60;;
51146;SDS011;37207;53.060;18.726;2023-02-19T09:02:50;13.80;;;7.30;;
51146;SDS011;37207;53.060;18.726;2023-02-19T09:05:16;10.70;;;6.30;;
51146;SDS011;37207;53.060;18.726;2023-02-19T09:07:42;8.20;;;4.80;;
51146;SDS011;37207;53.060;18.726;2023-02-19T09:10:12;10.40;;;5.50;;
51146;SDS011;37207;53.060;18.726;2023-02-19T09:12:39;13.70;;;6.80;;
51146;SDS011;37207;53.060;18.726;2023-02-19T09:15:06;18.70;;;7.20;;
51146;SDS011;37207;53.060;18.726;2023-02-19T09:17:33;12.90;;;6.00;;
51146;SDS011;37207;53.060;18.726;2023-02-19T09:19:58;14.00;;;5.30;;
51146;SDS011;37207;53.060;18.726;2023-02-19T09:22:24;12.00;;;6.50;;
51146;SDS011;37207;53.060;18.726;2023-02-19T09:24:50;15.20;;;6.50;;
51146;SDS011;37207;53.060;18.726;2023-02-19T09:27:17;10.70;;;5.30;;
51146;SDS011;37207;53.060;18.726;2023-02-19T09:29:44;16.30;;;5.90;;
51146;SDS011;37207;53.060;18.726;2023-02-19T09:32:10;10.70;;;5.40;;
51146;SDS011;37207;53.060;18.726;2023-02-19T09:34:36;9.70;;;4.40;;
51146;SDS011;37207;53.060;18.726;2023-02-19T09:39:32;8.10;;;4.50;;
51146;SDS011;37207;53.060;18.726;2023-02-19T09:42:41;8.90;;;4.30;;
51146;SDS011;37207;53.060;18.726;2023-02-19T09:44:57;8.00;;;4.90;;
51146;SDS011;37207;53.060;18.726;2023-02-19T09:47:26;12.00;;;4.80;;
51146;SDS011;37207;53.060;18.726;2023-02-19T09:49:55;14.50;;;5.90;;
51146;SDS011;37207;53.060;18.726;2023-02-19T09:52:36;14.30;;;5.70;;
51146;SDS011;37207;53.060;18.726;2023-02-19T09:55:48;7.50;;;4.00;;
51146;SDS011;37207;53.060;18.726;2023-02-19T09:58:02;8.70;;;4.80;;
51146;SDS011;37207;53.060;18.726;2023-02-19T10:00:39;12.20;;;5.90;;
51146;SDS011;37207;53.060;18.726;2023-02-19T10:03:08;9.70;;;5.30;;
51146;SDS011;37207;53.060;18.726;2023-02-19T10:05:37;11.00;;;4.40;;
51146;SDS011;37207;53.060;18.726;2023-02-19T10:08:06;11.20;;;4.90;;
51146;SDS011;37207;53.060;18.726;2023-02-19T10:10:37;8.80;;;3.60;;
51146;SDS011;37207;53.060;18.726;2023-02-19T10:15:51;11.90;;;5.20;;
51146;SDS011;37207;53.060;18.726;2023-02-19T10:18:21;10.30;;;4.10;;
51146;SDS011;37207;53.060;18.726;2023-02-19T10:20:49;10.20;;;4.90;;
51146;SDS011;37207;53.060;18.726;2023-02-19T10:23:17;13.20;;;6.10;;
51146;SDS011;37207;53.060;18.726;2023-02-19T10:25:48;6.80;;;3.60;;
51146;SDS011;37207;53.060;18.726;2023-02-19T10:28:19;8.30;;;4.30;;
51146;SDS011;37207;53.060;18.726;2023-02-19T10:35:52;12.70;;;4.40;;
51146;SDS011;37207;53.060;18.726;2023-02-19T10:38:19;9.10;;;4.10;;
51146;SDS011;37207;53.060;18.726;2023-02-19T10:40:50;12.40;;;4.00;;
51146;SDS011;37207;53.060;18.726;2023-02-19T10:43:24;11.60;;;4.40;;
51146;SDS011;37207;53.060;18.726;2023-02-19T10:45:58;6.70;;;3.50;;
51146;SDS011;37207;53.060;18.726;2023-02-19T10:48:28;4.90;;;2.30;;
51146;SDS011;37207;53.060;18.726;2023-02-19T10:51:07;9.10;;;5.20;;
51146;SDS011;37207;53.060;18.726;2023-02-19T10:56:22;6.90;;;3.10;;
51146;SDS011;37207;53.060;18.726;2023-02-19T10:58:51;4.90;;;2.80;;
51146;SDS011;37207;53.060;18.726;2023-02-19T11:01:21;7.10;;;3.00;;
51146;SDS011;37207;53.060;18.726;2023-02-19T11:03:49;5.40;;;2.30;;
51146;SDS011;37207;53.060;18.726;2023-02-19T11:06:35;6.60;;;2.30;;
51146;SDS011;37207;53.060;18.726;2023-02-19T11:09:01;4.50;;;2.40;;
51146;SDS011;37207;53.060;18.726;2023-02-19T11:11:28;5.30;;;2.60;;
51146;SDS011;37207;53.060;18.726;2023-02-19T11:13:58;4.40;;;2.10;;
51146;SDS011;37207;53.060;18.726;2023-02-19T11:16:49;5.90;;;2.80;;
51146;SDS011;37207;53.060;18.726;2023-02-19T11:25:05;6.90;;;3.90;;
51146;SDS011;37207;53.060;18.726;2023-02-19T11:27:35;5.50;;;3.00;;
51146;SDS011;37207;53.060;18.726;2023-02-19T11:35:40;8.50;;;4.10;;
51146;SDS011;37207;53.060;18.726;2023-02-19T11:38:11;5.50;;;3.00;;
51146;SDS011;37207;53.060;18.726;2023-02-19T11:46:21;10.70;;;4.60;;
51146;SDS011;37207;53.060;18.726;2023-02-19T11:57:01;8.70;;;3.00;;
51146;SDS011;37207;53.060;18.726;2023-02-19T11:59:59;6.00;;;3.00;;
51146;SDS011;37207;53.060;18.726;2023-02-19T12:02:37;8.80;;;6.50;;
51146;SDS011;37207;53.060;18.726;2023-02-19T12:05:21;3.50;;;1.90;;
51146;SDS011;37207;53.060;18.726;2023-02-19T12:10:51;7.60;;;3.50;;
51146;SDS011;37207;53.060;18.726;2023-02-19T12:22:02;4.40;;;2.50;;
51146;SDS011;37207;53.060;18.726;2023-02-19T12:33:33;4.40;;;2.50;;
51146;SDS011;37207;53.060;18.726;2023-02-19T12:38:43;8.90;;;3.80;;
51146;SDS011;37207;53.060;18.726;2023-02-19T12:43:57;2.10;;;1.40;;
51146;SDS011;37207;53.060;18.726;2023-02-19T12:46:50;2.60;;;1.70;;
51146;SDS011;37207;53.060;18.726;2023-02-19T12:49:23;3.60;;;2.50;;
51146;SDS011;37207;53.060;18.726;2023-02-19T12:54:51;3.40;;;2.00;;
51146;SDS011;37207;53.060;18.726;2023-02-19T12:57:23;3.60;;;1.20;;
51146;SDS011;37207;53.060;18.726;2023-02-19T12:59:56;18.10;;;9.40;;
51146;SDS011;37207;53.060;18.726;2023-02-19T13:08:23;8.10;;;5.70;;
51146;SDS011;37207;53.060;18.726;2023-02-19T13:13:34;6.10;;;3.20;;
51146;SDS011;37207;53.060;18.726;2023-02-19T13:16:07;4.40;;;2.90;;
51146;SDS011;37207;53.060;18.726;2023-02-19T13:18:41;4.70;;;2.70;;
51146;SDS011;37207;53.060;18.726;2023-02-19T13:21:11;3.40;;;1.50;;
51146;SDS011;37207;53.060;18.726;2023-02-19T13:24:03;1.70;;;1.00;;
51146;SDS011;37207;53.060;18.726;2023-02-19T13:29:40;6.20;;;3.80;;
51146;SDS011;37207;53.060;18.726;2023-02-19T13:37:58;7.60;;;5.90;;
51146;SDS011;37207;53.060;18.726;2023-02-19T13:40:33;22.40;;;12.50;;
51146;SDS011;37207;53.060;18.726;2023-02-19T13:43:03;15.30;;;9.60;;
51146;SDS011;37207;53.060;18.726;2023-02-19T13:58:58;13.70;;;10.80;;
51146;SDS011;37207;53.060;18.726;2023-02-19T14:25:27;5.80;;;5.30;;
51146;SDS011;37207;53.060;18.726;2023-02-19T14:33:13;4.30;;;3.20;;
51146;SDS011;37207;53.060;18.726;2023-02-19T14:35:43;3.60;;;1.70;;
51146;SDS011;37207;53.060;18.726;2023-02-19T14:38:24;4.00;;;2.60;;
51146;SDS011;37207;53.060;18.726;2023-02-19T14:40:57;2.60;;;2.10;;
51146;SDS011;37207;53.060;18.726;2023-02-19T14:43:26;3.00;;;2.20;;
51146;SDS011;37207;53.060;18.726;2023-02-19T14:45:59;3.70;;;3.10;;
51146;SDS011;37207;53.060;18.726;2023-02-19T14:48:48;9.80;;;6.70;;
51146;SDS011;37207;53.060;18.726;2023-02-19T14:51:21;21.60;;;12.70;;
51146;SDS011;37207;53.060;18.726;2023-02-19T14:53:54;9.50;;;4.60;;
51146;SDS011;37207;53.060;18.726;2023-02-19T14:56:25;10.30;;;4.20;;
51146;SDS011;37207;53.060;18.726;2023-02-19T14:59:06;6.20;;;2.50;;
51146;SDS011;37207;53.060;18.726;2023-02-19T15:01:39;2.40;;;1.70;;
51146;SDS011;37207;53.060;18.726;2023-02-19T15:04:17;12.20;;;5.90;;
51146;SDS011;37207;53.060;18.726;2023-02-19T15:06:50;11.40;;;8.40;;
51146;SDS011;37207;53.060;18.726;2023-02-19T15:09:18;4.50;;;3.60;;
51146;SDS011;37207;53.060;18.726;2023-02-19T15:11:46;3.60;;;2.90;;
51146;SDS011;37207;53.060;18.726;2023-02-19T15:14:18;4.40;;;4.00;;
51146;SDS011;37207;53.060;18.726;2023-02-19T15:16:47;2.60;;;2.10;;
51146;SDS011;37207;53.060;18.726;2023-02-19T15:19:15;4.50;;;2.10;;
51146;SDS011;37207;53.060;18.726;2023-02-19T15:21:43;1.90;;;1.20;;
51146;SDS011;37207;53.060;18.726;2023-02-19T15:24:17;2.70;;;1.60;;
51146;SDS011;37207;53.060;18.726;2023-02-19T15:26:46;4.30;;;2.20;;
51146;SDS011;37207;53.060;18.726;2023-02-19T15:29:17;5.10;;;4.10;;
51146;SDS011;37207;53.060;18.726;2023-02-19T15:31:47;3.80;;;2.90;;
51146;SDS011;37207;53.060;18.726;2023-02-19T15:34:23;6.20;;;4.50;;
51146;SDS011;37207;53.060;18.726;2023-02-19T15:37:01;5.00;;;4.10;;
51146;SDS011;37207;53.060;18.726;2023-02-19T15:39:37;6.20;;;4.60;;
51146;SDS011;37207;53.060;18.726;2023-02-19T15:42:06;8.30;;;4.80;;
51146;SDS011;37207;53.060;18.726;2023-02-19T15:44:37;6.40;;;4.80;;
51146;SDS011;37207;53.060;18.726;2023-02-19T15:49:53;4.90;;;2.30;;
51146;SDS011;37207;53.060;18.726;2023-02-19T15:58:06;7.40;;;6.10;;
51146;SDS011;37207;53.060;18.726;2023-02-19T16:00:50;8.50;;;6.20;;
51146;SDS011;37207;53.060;18.726;2023-02-19T16:03:47;6.70;;;5.40;;
51146;SDS011;37207;53.060;18.726;2023-02-19T16:06:14;7.20;;;5.20;;
51146;SDS011;37207;53.060;18.726;2023-02-19T16:08:45;3.80;;;1.90;;
51146;SDS011;37207;53.060;18.726;2023-02-19T16:11:35;6.00;;;5.30;;
51146;SDS011;37207;53.060;18.726;2023-02-19T16:19:41;12.10;;;7.60;;
51146;SDS011;37207;53.060;18.726;2023-02-19T16:22:09;7.50;;;5.80;;
51146;SDS011;37207;53.060;18.726;2023-02-19T16:24:48;11.10;;;5.90;;
51146;SDS011;37207;53.060;18.726;2023-02-19T16:27:27;4.60;;;2.20;;
51146;SDS011;37207;53.060;18.726;2023-02-19T16:30:07;9.60;;;6.20;;
51146;SDS011;37207;53.060;18.726;2023-02-19T16:35:53;16.70;;;9.20;;
51146;SDS011;37207;53.060;18.726;2023-02-19T16:41:33;9.80;;;6.10;;
51146;SDS011;37207;53.060;18.726;2023-02-19T16:46:48;37.50;;;16.20;;
51146;SDS011;37207;53.060;18.726;2023-02-19T16:49:22;34.80;;;16.30;;
51146;SDS011;37207;53.060;18.726;2023-02-19T16:51:59;25.90;;;15.60;;
51146;SDS011;37207;53.060;18.726;2023-02-19T16:54:27;18.10;;;12.40;;
51146;SDS011;37207;53.060;18.726;2023-02-19T16:56:53;19.50;;;12.30;;
51146;SDS011;37207;53.060;18.726;2023-02-19T16:59:19;18.60;;;11.80;;
51146;SDS011;37207;53.060;18.726;2023-02-19T17:01:45;7.80;;;4.00;;
51146;SDS011;37207;53.060;18.726;2023-02-19T17:04:11;11.90;;;4.40;;
51146;SDS011;37207;53.060;18.726;2023-02-19T17:09:06;15.30;;;7.80;;
51146;SDS011;37207;53.060;18.726;2023-02-19T17:11:41;9.20;;;4.50;;
51146;SDS011;37207;53.060;18.726;2023-02-19T17:14:14;6.30;;;4.10;;
51146;SDS011;37207;53.060;18.726;2023-02-19T17:16:40;18.50;;;9.40;;
51146;SDS011;37207;53.060;18.726;2023-02-19T17:19:13;17.00;;;10.10;;
51146;SDS011;37207;53.060;18.726;2023-02-19T17:21:58;9.40;;;3.60;;
51146;SDS011;37207;53.060;18.726;2023-02-19T17:24:24;9.10;;;3.70;;
51146;SDS011;37207;53.060;18.726;2023-02-19T17:26:50;11.80;;;4.50;;
51146;SDS011;37207;53.060;18.726;2023-02-19T17:29:16;13.30;;;7.20;;
51146;SDS011;37207;53.060;18.726;2023-02-19T17:31:43;6.50;;;2.80;;
51146;SDS011;37207;53.060;18.726;2023-02-19T17:34:10;12.10;;;6.00;;
51146;SDS011;37207;53.060;18.726;2023-02-19T17:36:36;22.70;;;12.70;;
51146;SDS011;37207;53.060;18.726;2023-02-19T17:39:09;23.10;;;9.70;;
51146;SDS011;37207;53.060;18.726;2023-02-19T17:41:42;17.00;;;7.50;;
51146;SDS011;37207;53.060;18.726;2023-02-19T17:44:09;54.40;;;24.00;;
51146;SDS011;37207;53.060;18.726;2023-02-19T17:46:35;72.60;;;28.20;;
51146;SDS011;37207;53.060;18.726;2023-02-19T17:49:14;51.60;;;11.30;;
51146;SDS011;37207;53.060;18.726;2023-02-19T17:51:44;39.20;;;8.60;;
51146;SDS011;37207;53.060;18.726;2023-02-19T17:54:10;40.40;;;10.00;;
51146;SDS011;37207;53.060;18.726;2023-02-19T17:56:36;38.40;;;9.20;;
51146;SDS011;37207;53.060;18.726;2023-02-19T17:59:14;35.80;;;6.50;;
51146;SDS011;37207;53.060;18.726;2023-02-19T18:01:40;24.50;;;6.60;;
51146;SDS011;37207;53.060;18.726;2023-02-19T18:04:06;22.70;;;11.50;;